sensor_id;sensor_type;location;lat;lon;timestamp;pressure;altitude;pressure_sealevel;temperature;humidity
50356;BME280;36264;51.296;-0.602;2023-04-02T00:00:35;101556.09;;;13.95;78.61
50356;BME280;36264;51.296;-0.602;2023-04-02T00:03:03;101547.81;;;13.82;78.66
50356;BME280;36264;51.296;-0.602;2023-04-02T00:05:37;101548.66;;;13.83;77.59
50356;BME280;36264;51.296;-0.602;2023-04-02T00:08:26;101541.75;;;13.82;78.06
50356;BME280;36264;51.296;-0.602;2023-04-02T00:10:56;101562.13;;;13.70;78.30
50356;BME280;36264;51.296;-0.602;2023-04-02T00:15:59;101559.50;;;13.70;79.27
50356;BME280;36264;51.296;-0.602;2023-04-02T00:18:27;101566.03;;;13.55;78.72
50356;BME280;36264;51.296;-0.602;2023-04-02T00:21:20;101569.69;;;13.78;76.64
50356;BME280;36264;51.296;-0.602;2023-04-02T00:23:46;101576.59;;;13.51;78.61
50356;BME280;36264;51.296;-0.602;2023-04-02T00:26:31;101565.94;;;13.87;77.36
50356;BME280;36264;51.296;-0.602;2023-04-02T00:28:59;101583.94;;;13.68;78.55
50356;BME280;36264;51.296;-0.602;2023-04-02T00:31:25;101582.50;;;13.57;78.67
50356;BME280;36264;51.296;-0.602;2023-04-02T00:33:51;101580.75;;;13.58;79.46
50356;BME280;36264;51.296;-0.602;2023-04-02T00:36:21;101578.16;;;13.58;80.13
50356;BME280;36264;51.296;-0.602;2023-04-02T00:38:49;101590.41;;;13.54;80.61
50356;BME280;36264;51.296;-0.602;2023-04-02T00:41:25;101596.38;;;13.88;79.67
50356;BME280;36264;51.296;-0.602;2023-04-02T00:43:54;101590.88;;;13.69;80.14
50356;BME280;36264;51.296;-0.602;2023-04-02T00:46:26;101597.66;;;13.74;80.00
50356;BME280;36264;51.296;-0.602;2023-04-02T00:49:06;101592.94;;;13.86;79.24
50356;BME280;36264;51.296;-0.602;2023-04-02T00:51:37;101605.38;;;13.77;79.98
50356;BME280;36264;51.296;-0.602;2023-04-02T00:54:05;101610.91;;;13.97;78.02
50356;BME280;36264;51.296;-0.602;2023-04-02T00:56:40;101613.97;;;13.81;78.68
50356;BME280;36264;51.296;-0.602;2023-04-02T00:59:28;101621.53;;;13.90;78.94
50356;BME280;36264;51.296;-0.602;2023-04-02T01:07:27;101633.66;;;13.93;77.83
50356;BME280;36264;51.296;-0.602;2023-04-02T01:10:22;101641.81;;;13.82;79.10
50356;BME280;36264;51.296;-0.602;2023-04-02T01:13:04;101645.22;;;13.84;79.05
50356;BME280;36264;51.296;-0.602;2023-04-02T01:15:41;101640.22;;;13.76;79.00
50356;BME280;36264;51.296;-0.602;2023-04-02T01:18:25;101640.56;;;13.66;78.97
50356;BME280;36264;51.296;-0.602;2023-04-02T01:21:03;101647.28;;;13.43;79.81
50356;BME280;36264;51.296;-0.602;2023-04-02T01:23:44;101643.31;;;13.61;79.29
50356;BME280;36264;51.296;-0.602;2023-04-02T01:28:57;101645.03;;;13.31;79.13
50356;BME280;36264;51.296;-0.602;2023-04-02T01:31:26;101651.34;;;13.53;79.24
50356;BME280;36264;51.296;-0.602;2023-04-02T01:33:52;101646.72;;;13.32;79.72
50356;BME280;36264;51.296;-0.602;2023-04-02T01:36:50;101649.56;;;13.55;78.62
50356;BME280;36264;51.296;-0.602;2023-04-02T01:42:07;101652.06;;;13.58;78.39
50356;BME280;36264;51.296;-0.602;2023-04-02T01:44:42;101652.28;;;13.51;78.47
50356;BME280;36264;51.296;-0.602;2023-04-02T01:47:14;101659.94;;;13.57;77.60
50356;BME280;36264;51.296;-0.602;2023-04-02T01:49:42;101657.44;;;13.54;77.66
50356;BME280;36264;51.296;-0.602;2023-04-02T01:52:12;101661.88;;;13.50;78.44
50356;BME280;36264;51.296;-0.602;2023-04-02T01:54:40;101665.13;;;13.58;77.82
50356;BME280;36264;51.296;-0.602;2023-04-02T01:57:07;101671.09;;;13.62;77.79
50356;BME280;36264;51.296;-0.602;2023-04-02T01:59:32;101666.44;;;13.44;77.47
50356;BME280;36264;51.296;-0.602;2023-04-02T02:02:06;101661.63;;;13.59;77.58
50356;BME280;36264;51.296;-0.602;2023-04-02T02:04:35;101669.22;;;13.37;78.36
50356;BME280;36264;51.296;-0.602;2023-04-02T02:07:01;101661.25;;;13.42;78.23
50356;BME280;36264;51.296;-0.602;2023-04-02T02:09:33;101670.34;;;13.58;78.07
50356;BME280;36264;51.296;-0.602;2023-04-02T02:12:03;101664.50;;;13.50;78.43
50356;BME280;36264;51.296;-0.602;2023-04-02T02:14:29;101667.75;;;13.58;78.34
50356;BME280;36264;51.296;-0.602;2023-04-02T02:16:59;101666.88;;;13.58;78.57
50356;BME280;36264;51.296;-0.602;2023-04-02T02:19:30;101676.50;;;13.56;78.10
50356;BME280;36264;51.296;-0.602;2023-04-02T02:24:32;101684.56;;;13.48;78.47
50356;BME280;36264;51.296;-0.602;2023-04-02T02:29:43;101693.91;;;13.55;78.10
50356;BME280;36264;51.296;-0.602;2023-04-02T02:32:11;101698.16;;;13.59;78.38
50356;BME280;36264;51.296;-0.602;2023-04-02T02:34:43;101695.81;;;13.50;78.76
50356;BME280;36264;51.296;-0.602;2023-04-02T02:37:30;101704.94;;;13.65;78.43
50356;BME280;36264;51.296;-0.602;2023-04-02T02:39:59;101712.41;;;13.48;78.47
50356;BME280;36264;51.296;-0.602;2023-04-02T02:42:38;101714.13;;;13.49;78.39
50356;BME280;36264;51.296;-0.602;2023-04-02T02:45:11;101721.47;;;13.34;79.55
50356;BME280;36264;51.296;-0.602;2023-04-02T02:47:38;101713.91;;;13.23;79.86
50356;BME280;36264;51.296;-0.602;2023-04-02T02:50:10;101715.69;;;13.21;80.30
50356;BME280;36264;51.296;-0.602;2023-04-02T02:52:38;101717.69;;;13.12;80.69
50356;BME280;36264;51.296;-0.602;2023-04-02T02:55:07;101720.34;;;13.43;79.59
50356;BME280;36264;51.296;-0.602;2023-04-02T02:57:37;101719.69;;;13.36;80.09
50356;BME280;36264;51.296;-0.602;2023-04-02T03:00:05;101725.91;;;13.31;80.01
50356;BME280;36264;51.296;-0.602;2023-04-02T03:02:35;101734.94;;;13.17;81.38
50356;BME280;36264;51.296;-0.602;2023-04-02T03:05:01;101737.78;;;13.08;81.20
50356;BME280;36264;51.296;-0.602;2023-04-02T03:07:29;101742.25;;;13.03;81.60
50356;BME280;36264;51.296;-0.602;2023-04-02T03:13:22;101742.91;;;13.46;80.78
50356;BME280;36264;51.296;-0.602;2023-04-02T03:20:58;101765.00;;;13.34;81.42
50356;BME280;36264;51.296;-0.602;2023-04-02T03:23:31;101758.59;;;13.10;81.54
50356;BME280;36264;51.296;-0.602;2023-04-02T03:26:11;101764.88;;;13.37;81.41
50356;BME280;36264;51.296;-0.602;2023-04-02T03:28:42;101764.84;;;13.38;81.39
50356;BME280;36264;51.296;-0.602;2023-04-02T03:31:16;101767.25;;;13.46;80.81
50356;BME280;36264;51.296;-0.602;2023-04-02T03:33:49;101763.66;;;13.50;81.00
50356;BME280;36264;51.296;-0.602;2023-04-02T03:38:53;101784.13;;;13.33;81.85
50356;BME280;36264;51.296;-0.602;2023-04-02T03:44:00;101783.06;;;13.40;82.41
50356;BME280;36264;51.296;-0.602;2023-04-02T03:46:38;101786.31;;;13.50;81.32
50356;BME280;36264;51.296;-0.602;2023-04-02T03:49:38;101786.28;;;13.51;80.72
50356;BME280;36264;51.296;-0.602;2023-04-02T03:52:11;101801.09;;;13.49;80.92
50356;BME280;36264;51.296;-0.602;2023-04-02T03:54:39;101810.19;;;13.34;80.92
50356;BME280;36264;51.296;-0.602;2023-04-02T03:57:13;101805.94;;;13.29;82.07
50356;BME280;36264;51.296;-0.602;2023-04-02T04:00:03;101815.41;;;13.34;81.50
50356;BME280;36264;51.296;-0.602;2023-04-02T04:05:05;101813.91;;;13.22;82.13
50356;BME280;36264;51.296;-0.602;2023-04-02T04:07:38;101816.91;;;13.43;81.44
50356;BME280;36264;51.296;-0.602;2023-04-02T04:10:06;101818.78;;;13.38;80.84
50356;BME280;36264;51.296;-0.602;2023-04-02T04:12:41;101823.19;;;13.36;80.66
50356;BME280;36264;51.296;-0.602;2023-04-02T04:18:02;101832.13;;;13.60;81.03
50356;BME280;36264;51.296;-0.602;2023-04-02T04:20:38;101828.22;;;13.44;80.70
50356;BME280;36264;51.296;-0.602;2023-04-02T04:23:26;101840.13;;;13.54;80.18
50356;BME280;36264;51.296;-0.602;2023-04-02T04:31:29;101851.19;;;13.29;80.82
50356;BME280;36264;51.296;-0.602;2023-04-02T04:33:59;101866.84;;;13.29;80.79
50356;BME280;36264;51.296;-0.602;2023-04-02T04:36:38;101856.06;;;13.43;80.00
50356;BME280;36264;51.296;-0.602;2023-04-02T04:39:14;101872.66;;;13.40;80.07
50356;BME280;36264;51.296;-0.602;2023-04-02T04:41:43;101872.00;;;13.31;80.69
50356;BME280;36264;51.296;-0.602;2023-04-02T04:44:27;101877.00;;;13.40;80.71
50356;BME280;36264;51.296;-0.602;2023-04-02T04:47:02;101873.72;;;13.32;80.81
50356;BME280;36264;51.296;-0.602;2023-04-02T04:49:46;101886.19;;;13.19;81.75
50356;BME280;36264;51.296;-0.602;2023-04-02T04:52:18;101888.06;;;13.14;81.74
50356;BME280;36264;51.296;-0.602;2023-04-02T04:54:45;101897.69;;;13.12;81.89
50356;BME280;36264;51.296;-0.602;2023-04-02T04:57:26;101898.88;;;13.36;80.68
50356;BME280;36264;51.296;-0.602;2023-04-02T05:00:04;101901.47;;;13.36;81.50
50356;BME280;36264;51.296;-0.602;2023-04-02T05:05:29;101907.94;;;13.18;81.54
50356;BME280;36264;51.296;-0.602;2023-04-02T05:07:59;101908.72;;;13.23;81.18
50356;BME280;36264;51.296;-0.602;2023-04-02T05:10:50;101916.84;;;13.48;80.31
50356;BME280;36264;51.296;-0.602;2023-04-02T05:13:24;101919.69;;;13.39;79.98
50356;BME280;36264;51.296;-0.602;2023-04-02T05:16:06;101923.38;;;13.27;79.76
50356;BME280;36264;51.296;-0.602;2023-04-02T05:19:02;101941.03;;;13.16;79.16
50356;BME280;36264;51.296;-0.602;2023-04-02T05:21:32;101948.19;;;13.08;78.91
50356;BME280;36264;51.296;-0.602;2023-04-02T05:26:32;101947.78;;;13.26;79.34
50356;BME280;36264;51.296;-0.602;2023-04-02T05:29:08;101954.53;;;13.36;78.92
50356;BME280;36264;51.296;-0.602;2023-04-02T05:31:41;101956.34;;;13.33;78.11
50356;BME280;36264;51.296;-0.602;2023-04-02T05:34:10;101950.41;;;13.26;78.89
50356;BME280;36264;51.296;-0.602;2023-04-02T05:36:37;101974.88;;;13.19;78.62
50356;BME280;36264;51.296;-0.602;2023-04-02T05:39:07;101965.16;;;13.26;78.11
50356;BME280;36264;51.296;-0.602;2023-04-02T05:41:40;101976.34;;;13.34;77.82
50356;BME280;36264;51.296;-0.602;2023-04-02T05:47:09;101982.38;;;13.36;77.50
50356;BME280;36264;51.296;-0.602;2023-04-02T05:55:43;101997.22;;;13.34;77.31
50356;BME280;36264;51.296;-0.602;2023-04-02T05:58:36;101997.38;;;13.25;77.26
50356;BME280;36264;51.296;-0.602;2023-04-02T06:06:16;102009.44;;;13.29;77.00
50356;BME280;36264;51.296;-0.602;2023-04-02T06:09:06;102017.88;;;13.43;76.14
50356;BME280;36264;51.296;-0.602;2023-04-02T06:11:40;102012.72;;;13.40;76.43
50356;BME280;36264;51.296;-0.602;2023-04-02T06:14:11;102020.00;;;13.24;77.07
50356;BME280;36264;51.296;-0.602;2023-04-02T06:16:37;102032.50;;;13.08;77.29
50356;BME280;36264;51.296;-0.602;2023-04-02T06:19:08;102029.47;;;13.28;76.95
50356;BME280;36264;51.296;-0.602;2023-04-02T06:21:45;102035.75;;;13.19;76.89
50356;BME280;36264;51.296;-0.602;2023-04-02T06:24:17;102041.09;;;13.15;77.57
50356;BME280;36264;51.296;-0.602;2023-04-02T06:26:56;102047.91;;;13.20;76.69
50356;BME280;36264;51.296;-0.602;2023-04-02T06:29:32;102044.41;;;13.21;77.06
50356;BME280;36264;51.296;-0.602;2023-04-02T06:32:04;102060.88;;;12.80;76.89
50356;BME280;36264;51.296;-0.602;2023-04-02T06:34:31;102076.31;;;12.91;78.45
50356;BME280;36264;51.296;-0.602;2023-04-02T06:37:00;102085.72;;;12.99;77.79
50356;BME280;36264;51.296;-0.602;2023-04-02T06:39:28;102075.88;;;12.68;76.94
50356;BME280;36264;51.296;-0.602;2023-04-02T06:42:11;102079.47;;;13.07;76.13
50356;BME280;36264;51.296;-0.602;2023-04-02T06:44:38;102080.75;;;12.87;76.79
50356;BME280;36264;51.296;-0.602;2023-04-02T06:49:39;102087.00;;;13.22;74.39
50356;BME280;36264;51.296;-0.602;2023-04-02T06:52:22;102091.38;;;13.21;75.86
50356;BME280;36264;51.296;-0.602;2023-04-02T06:54:50;102098.41;;;12.73;76.12
50356;BME280;36264;51.296;-0.602;2023-04-02T06:57:16;102096.25;;;12.95;76.15
50356;BME280;36264;51.296;-0.602;2023-04-02T06:59:41;102100.31;;;12.63;76.06
50356;BME280;36264;51.296;-0.602;2023-04-02T07:02:30;102107.41;;;13.01;75.32
50356;BME280;36264;51.296;-0.602;2023-04-02T07:05:02;102110.25;;;12.89;76.26
50356;BME280;36264;51.296;-0.602;2023-04-02T07:07:27;102121.00;;;12.72;76.37
50356;BME280;36264;51.296;-0.602;2023-04-02T07:09:53;102123.66;;;12.71;76.62
50356;BME280;36264;51.296;-0.602;2023-04-02T07:12:22;102118.72;;;13.00;76.70
50356;BME280;36264;51.296;-0.602;2023-04-02T07:14:49;102125.44;;;12.65;76.24
50356;BME280;36264;51.296;-0.602;2023-04-02T07:17:15;102123.44;;;12.81;77.29
50356;BME280;36264;51.296;-0.602;2023-04-02T07:19:42;102126.41;;;12.61;77.02
50356;BME280;36264;51.296;-0.602;2023-04-02T07:22:10;102137.66;;;12.63;77.69
50356;BME280;36264;51.296;-0.602;2023-04-02T07:24:35;102142.88;;;12.63;77.17
50356;BME280;36264;51.296;-0.602;2023-04-02T07:27:00;102159.34;;;12.65;77.04
50356;BME280;36264;51.296;-0.602;2023-04-02T07:29:26;102161.09;;;12.65;77.27
50356;BME280;36264;51.296;-0.602;2023-04-02T07:31:51;102166.34;;;12.62;77.06
50356;BME280;36264;51.296;-0.602;2023-04-02T07:34:18;102169.91;;;12.59;77.28
50356;BME280;36264;51.296;-0.602;2023-04-02T07:36:43;102179.47;;;12.57;77.53
50356;BME280;36264;51.296;-0.602;2023-04-02T07:39:09;102178.44;;;12.67;77.46
50356;BME280;36264;51.296;-0.602;2023-04-02T07:41:50;102172.66;;;13.00;76.39
50356;BME280;36264;51.296;-0.602;2023-04-02T07:44:16;102171.44;;;12.69;76.05
50356;BME280;36264;51.296;-0.602;2023-04-02T07:46:41;102176.50;;;12.79;75.69
50356;BME280;36264;51.296;-0.602;2023-04-02T07:49:06;102187.84;;;12.76;75.48
50356;BME280;36264;51.296;-0.602;2023-04-02T07:51:32;102187.94;;;12.70;74.75
50356;BME280;36264;51.296;-0.602;2023-04-02T07:53:57;102192.38;;;12.65;74.42
50356;BME280;36264;51.296;-0.602;2023-04-02T07:56:26;102200.09;;;12.71;73.75
50356;BME280;36264;51.296;-0.602;2023-04-02T07:58:52;102192.94;;;12.82;74.15
50356;BME280;36264;51.296;-0.602;2023-04-02T08:01:23;102198.38;;;13.20;73.14
50356;BME280;36264;51.296;-0.602;2023-04-02T08:03:50;102192.78;;;12.92;73.40
50356;BME280;36264;51.296;-0.602;2023-04-02T08:06:16;102198.03;;;12.90;73.25
50356;BME280;36264;51.296;-0.602;2023-04-02T08:08:41;102195.44;;;12.90;73.35
50356;BME280;36264;51.296;-0.602;2023-04-02T08:11:07;102196.91;;;13.03;73.19
50356;BME280;36264;51.296;-0.602;2023-04-02T08:13:32;102194.38;;;12.99;73.30
50356;BME280;36264;51.296;-0.602;2023-04-02T08:15:59;102201.97;;;13.13;72.72
50356;BME280;36264;51.296;-0.602;2023-04-02T08:18:24;102211.59;;;13.09;72.00
50356;BME280;36264;51.296;-0.602;2023-04-02T08:20:50;102206.53;;;13.01;72.58
50356;BME280;36264;51.296;-0.602;2023-04-02T08:23:16;102210.84;;;13.04;72.59
50356;BME280;36264;51.296;-0.602;2023-04-02T08:25:43;102213.31;;;13.12;71.76
50356;BME280;36264;51.296;-0.602;2023-04-02T08:28:09;102238.84;;;12.93;71.66
50356;BME280;36264;51.296;-0.602;2023-04-02T08:30:34;102240.63;;;12.89;71.53
50356;BME280;36264;51.296;-0.602;2023-04-02T08:33:00;102240.72;;;12.84;72.03
50356;BME280;36264;51.296;-0.602;2023-04-02T08:35:25;102254.50;;;12.93;72.22
50356;BME280;36264;51.296;-0.602;2023-04-02T08:37:50;102246.94;;;12.76;70.84
50356;BME280;36264;51.296;-0.602;2023-04-02T08:40:23;102246.34;;;13.11;69.99
50356;BME280;36264;51.296;-0.602;2023-04-02T08:48:13;102256.84;;;13.07;70.59
50356;BME280;36264;51.296;-0.602;2023-04-02T08:50:41;102263.66;;;13.17;70.82
50356;BME280;36264;51.296;-0.602;2023-04-02T08:53:20;102257.34;;;13.29;70.57
50356;BME280;36264;51.296;-0.602;2023-04-02T09:03:49;102284.16;;;13.38;70.71
50356;BME280;36264;51.296;-0.602;2023-04-02T09:06:18;102278.09;;;13.36;70.79
50356;BME280;36264;51.296;-0.602;2023-04-02T09:08:47;102287.66;;;13.37;71.13
50356;BME280;36264;51.296;-0.602;2023-04-02T09:11:32;102287.47;;;13.48;69.49
50356;BME280;36264;51.296;-0.602;2023-04-02T09:14:03;102290.19;;;13.42;70.75
50356;BME280;36264;51.296;-0.602;2023-04-02T09:16:39;102296.16;;;13.49;69.43
50356;BME280;36264;51.296;-0.602;2023-04-02T09:22:10;102302.94;;;13.57;69.21
50356;BME280;36264;51.296;-0.602;2023-04-02T09:24:39;102307.78;;;13.29;69.89
50356;BME280;36264;51.296;-0.602;2023-04-02T09:27:19;102312.34;;;13.68;69.52
50356;BME280;36264;51.296;-0.602;2023-04-02T09:29:48;102314.25;;;13.59;69.21
50356;BME280;36264;51.296;-0.602;2023-04-02T09:32:37;102318.59;;;13.57;66.84
50356;BME280;36264;51.296;-0.602;2023-04-02T09:35:13;102315.44;;;13.40;67.92
50356;BME280;36264;51.296;-0.602;2023-04-02T09:37:40;102332.34;;;13.16;69.42
50356;BME280;36264;51.296;-0.602;2023-04-02T09:42:47;102332.94;;;13.35;69.56
50356;BME280;36264;51.296;-0.602;2023-04-02T09:45:18;102332.88;;;13.38;70.18
50356;BME280;36264;51.296;-0.602;2023-04-02T09:47:44;102329.78;;;13.13;70.59
50356;BME280;36264;51.296;-0.602;2023-04-02T09:50:30;102345.72;;;13.50;70.19
50356;BME280;36264;51.296;-0.602;2023-04-02T09:52:56;102348.78;;;13.21;71.29
50356;BME280;36264;51.296;-0.602;2023-04-02T09:55:24;102359.88;;;13.37;71.39
50356;BME280;36264;51.296;-0.602;2023-04-02T09:58:12;102357.97;;;13.47;70.88
50356;BME280;36264;51.296;-0.602;2023-04-02T10:00:38;102360.09;;;13.23;71.42
50356;BME280;36264;51.296;-0.602;2023-04-02T10:03:09;102357.72;;;13.08;71.34
50356;BME280;36264;51.296;-0.602;2023-04-02T10:05:42;102370.47;;;13.26;72.27
50356;BME280;36264;51.296;-0.602;2023-04-02T10:08:19;102372.69;;;13.51;71.87
50356;BME280;36264;51.296;-0.602;2023-04-02T10:10:54;102367.34;;;13.58;71.52
50356;BME280;36264;51.296;-0.602;2023-04-02T10:16:02;102383.91;;;13.54;70.88
50356;BME280;36264;51.296;-0.602;2023-04-02T10:18:45;102377.97;;;13.48;69.88
50356;BME280;36264;51.296;-0.602;2023-04-02T10:21:17;102380.53;;;13.49;70.99
50356;BME280;36264;51.296;-0.602;2023-04-02T10:23:43;102387.91;;;13.22;70.29
50356;BME280;36264;51.296;-0.602;2023-04-02T10:37:01;102389.31;;;13.47;68.43
50356;BME280;36264;51.296;-0.602;2023-04-02T10:39:36;102391.84;;;13.51;69.30
50356;BME280;36264;51.296;-0.602;2023-04-02T10:42:15;102392.09;;;13.36;69.78
50356;BME280;36264;51.296;-0.602;2023-04-02T10:45:01;102402.63;;;13.80;67.86
50356;BME280;36264;51.296;-0.602;2023-04-02T10:53:04;102409.63;;;13.79;69.10
50356;BME280;36264;51.296;-0.602;2023-04-02T10:55:35;102407.06;;;13.76;68.49
50356;BME280;36264;51.296;-0.602;2023-04-02T10:58:07;102403.69;;;13.69;67.12
50356;BME280;36264;51.296;-0.602;2023-04-02T11:00:38;102409.06;;;13.62;68.38
50356;BME280;36264;51.296;-0.602;2023-04-02T11:03:11;102408.94;;;13.68;69.00
50356;BME280;36264;51.296;-0.602;2023-04-02T11:05:54;102409.47;;;13.87;68.83
50356;BME280;36264;51.296;-0.602;2023-04-02T11:08:46;102408.50;;;13.92;68.20
50356;BME280;36264;51.296;-0.602;2023-04-02T11:11:22;102417.28;;;13.88;67.96
50356;BME280;36264;51.296;-0.602;2023-04-02T11:14:02;102418.13;;;13.90;68.09
50356;BME280;36264;51.296;-0.602;2023-04-02T11:16:30;102416.09;;;13.56;69.72
50356;BME280;36264;51.296;-0.602;2023-04-02T11:21:45;102419.88;;;13.90;69.92
50356;BME280;36264;51.296;-0.602;2023-04-02T11:29:46;102418.78;;;14.02;70.09
50356;BME280;36264;51.296;-0.602;2023-04-02T11:42:35;102442.63;;;13.85;68.52
50356;BME280;36264;51.296;-0.602;2023-04-02T11:53:29;102455.03;;;14.19;65.80
50356;BME280;36264;51.296;-0.602;2023-04-02T12:11:45;102473.16;;;13.80;67.17
50356;BME280;36264;51.296;-0.602;2023-04-02T12:17:24;102474.44;;;14.07;65.52
50356;BME280;36264;51.296;-0.602;2023-04-02T12:19:54;102476.09;;;14.11;67.69
50356;BME280;36264;51.296;-0.602;2023-04-02T12:22:45;102477.41;;;14.34;65.41
50356;BME280;36264;51.296;-0.602;2023-04-02T12:25:30;102481.66;;;14.39;66.33
50356;BME280;36264;51.296;-0.602;2023-04-02T12:30:34;102492.28;;;14.30;66.62
50356;BME280;36264;51.296;-0.602;2023-04-02T12:35:45;102498.56;;;14.21;66.00
50356;BME280;36264;51.296;-0.602;2023-04-02T12:38:29;102500.91;;;14.35;64.40
50356;BME280;36264;51.296;-0.602;2023-04-02T12:41:19;102500.03;;;14.36;63.22
50356;BME280;36264;51.296;-0.602;2023-04-02T12:43:56;102514.13;;;14.29;65.41
50356;BME280;36264;51.296;-0.602;2023-04-02T12:46:21;102515.28;;;14.11;66.09
50356;BME280;36264;51.296;-0.602;2023-04-02T12:48:50;102503.75;;;14.24;66.47
50356;BME280;36264;51.296;-0.602;2023-04-02T12:51:16;102514.19;;;14.24;65.86
50356;BME280;36264;51.296;-0.602;2023-04-02T12:53:50;102501.34;;;14.57;65.79
50356;BME280;36264;51.296;-0.602;2023-04-02T12:56:21;102497.84;;;14.58;65.53
50356;BME280;36264;51.296;-0.602;2023-04-02T12:58:57;102514.34;;;14.63;64.56
50356;BME280;36264;51.296;-0.602;2023-04-02T13:01:25;102516.09;;;14.63;66.10
50356;BME280;36264;51.296;-0.602;2023-04-02T13:04:06;102513.09;;;14.83;65.60
50356;BME280;36264;51.296;-0.602;2023-04-02T13:06:34;102513.53;;;14.58;64.21
50356;BME280;36264;51.296;-0.602;2023-04-02T13:09:02;102517.00;;;14.60;64.81
50356;BME280;36264;51.296;-0.602;2023-04-02T13:11:33;102521.91;;;14.77;64.98
50356;BME280;36264;51.296;-0.602;2023-04-02T13:14:01;102510.03;;;14.62;65.34
50356;BME280;36264;51.296;-0.602;2023-04-02T13:16:37;102509.31;;;14.51;61.45
50356;BME280;36264;51.296;-0.602;2023-04-02T13:21:41;102505.78;;;14.54;65.80
50356;BME280;36264;51.296;-0.602;2023-04-02T13:24:15;102508.53;;;14.93;65.04
50356;BME280;36264;51.296;-0.602;2023-04-02T13:26:41;102522.00;;;14.73;65.09
50356;BME280;36264;51.296;-0.602;2023-04-02T13:31:55;102520.72;;;14.92;64.52
50356;BME280;36264;51.296;-0.602;2023-04-02T13:34:21;102514.31;;;14.65;63.69
50356;BME280;36264;51.296;-0.602;2023-04-02T13:36:48;102521.28;;;14.66;61.98
50356;BME280;36264;51.296;-0.602;2023-04-02T13:39:13;102510.22;;;14.50;63.08
50356;BME280;36264;51.296;-0.602;2023-04-02T13:41:43;102512.00;;;14.93;62.14
50356;BME280;36264;51.296;-0.602;2023-04-02T13:44:29;102523.09;;;15.04;59.88
50356;BME280;36264;51.296;-0.602;2023-04-02T13:46:56;102527.09;;;14.80;62.39
50356;BME280;36264;51.296;-0.602;2023-04-02T13:49:23;102523.41;;;14.89;62.72
50356;BME280;36264;51.296;-0.602;2023-04-02T13:51:51;102513.13;;;14.81;62.30
50356;BME280;36264;51.296;-0.602;2023-04-02T13:54:27;102521.22;;;15.10;62.54
50356;BME280;36264;51.296;-0.602;2023-04-02T13:56:55;102513.31;;;15.13;62.77
50356;BME280;36264;51.296;-0.602;2023-04-02T13:59:20;102517.75;;;15.48;63.09
50356;BME280;36264;51.296;-0.602;2023-04-02T14:01:46;102526.53;;;15.85;62.99
50356;BME280;36264;51.296;-0.602;2023-04-02T14:04:20;102517.03;;;16.48;61.97
50356;BME280;36264;51.296;-0.602;2023-04-02T14:18:48;102522.69;;;16.95;58.78
50356;BME280;36264;51.296;-0.602;2023-04-02T14:24:01;102526.72;;;17.07;61.18
50356;BME280;36264;51.296;-0.602;2023-04-02T14:27:09;102530.63;;;17.22;59.49
50356;BME280;36264;51.296;-0.602;2023-04-02T14:29:43;102525.59;;;17.14;57.77
50356;BME280;36264;51.296;-0.602;2023-04-02T14:35:27;102515.06;;;17.44;55.94
50356;BME280;36264;51.296;-0.602;2023-04-02T14:40:54;102520.06;;;17.52;56.71
50356;BME280;36264;51.296;-0.602;2023-04-02T14:43:47;102516.47;;;17.83;56.05
50356;BME280;36264;51.296;-0.602;2023-04-02T14:46:14;102506.44;;;17.67;58.83
50356;BME280;36264;51.296;-0.602;2023-04-02T14:49:02;102511.84;;;18.16;51.20
50356;BME280;36264;51.296;-0.602;2023-04-02T14:51:38;102519.19;;;18.32;54.30
50356;BME280;36264;51.296;-0.602;2023-04-02T14:54:11;102515.75;;;18.29;57.31
50356;BME280;36264;51.296;-0.602;2023-04-02T14:57:31;102517.16;;;18.40;55.49
50356;BME280;36264;51.296;-0.602;2023-04-02T15:02:20;102507.28;;;18.21;54.26
50356;BME280;36264;51.296;-0.602;2023-04-02T15:05:00;102496.50;;;18.29;54.39
50356;BME280;36264;51.296;-0.602;2023-04-02T15:07:40;102506.59;;;18.41;52.18
50356;BME280;36264;51.296;-0.602;2023-04-02T15:12:41;102496.59;;;18.01;56.03
50356;BME280;36264;51.296;-0.602;2023-04-02T15:18:00;102493.06;;;18.51;55.30
50356;BME280;36264;51.296;-0.602;2023-04-02T15:20:33;102492.09;;;18.53;55.52
50356;BME280;36264;51.296;-0.602;2023-04-02T15:23:11;102478.44;;;18.67;50.12
50356;BME280;36264;51.296;-0.602;2023-04-02T15:25:49;102491.56;;;18.92;54.68
50356;BME280;36264;51.296;-0.602;2023-04-02T15:28:29;102500.53;;;18.87;49.92
50356;BME280;36264;51.296;-0.602;2023-04-02T15:30:59;102498.53;;;18.93;54.64
50356;BME280;36264;51.296;-0.602;2023-04-02T15:33:37;102497.97;;;18.85;52.42
50356;BME280;36264;51.296;-0.602;2023-04-02T15:36:31;102481.69;;;18.74;45.75
50356;BME280;36264;51.296;-0.602;2023-04-02T15:39:26;102489.38;;;18.80;47.05
50356;BME280;36264;51.296;-0.602;2023-04-02T15:42:01;102484.16;;;19.02;54.72
50356;BME280;36264;51.296;-0.602;2023-04-02T15:44:28;102479.19;;;18.94;54.29
50356;BME280;36264;51.296;-0.602;2023-04-02T15:47:03;102476.56;;;19.39;51.75
50356;BME280;36264;51.296;-0.602;2023-04-02T15:52:46;102459.59;;;19.66;47.87
50356;BME280;36264;51.296;-0.602;2023-04-02T15:55:24;102471.00;;;19.89;54.24
50356;BME280;36264;51.296;-0.602;2023-04-02T16:11:10;102477.59;;;20.58;59.37
50356;BME280;36264;51.296;-0.602;2023-04-02T16:13:36;102480.16;;;20.80;47.53
50356;BME280;36264;51.296;-0.602;2023-04-02T16:16:06;102484.09;;;20.51;60.87
50356;BME280;36264;51.296;-0.602;2023-04-02T16:21:21;102491.53;;;20.99;60.64
50356;BME280;36264;51.296;-0.602;2023-04-02T16:23:47;102491.97;;;20.90;58.13
50356;BME280;36264;51.296;-0.602;2023-04-02T16:31:37;102484.22;;;21.43;48.66
50356;BME280;36264;51.296;-0.602;2023-04-02T16:34:15;102483.69;;;21.71;56.97
50356;BME280;36264;51.296;-0.602;2023-04-02T16:39:35;102484.25;;;22.46;55.65
50356;BME280;36264;51.296;-0.602;2023-04-02T16:48:03;102496.44;;;23.30;46.29
50356;BME280;36264;51.296;-0.602;2023-04-02T17:04:05;102508.81;;;26.88;43.12